Time;durP1;ratioP1;P1;durP2;ratioP2;P2;SDS_P1;SDS_P2;PMS_P1;PMS_P2;Temp;Humidity;BMP_temperature;BMP_pressure;BME280_temperature;BME280_humidity;BME280_pressure;Samples;Min_cycle;Max_cycle;Signal;HPM_P1;HPM_P2
2022/05/26 00:01:06;;;;;;;3.53;1.00;;;;;;;15.34;57.43;100869.19;6120177;28;20056;-67
2022/05/26 00:04:01;;;;;;;1.88;0.90;;;;;;;15.39;57.13;100872.16;6120707;28;20032;-67
2022/05/26 00:06:58;;;;;;;5.00;1.02;;;;;;;15.34;57.90;100869.19;6124133;28;20091;-67
2022/05/26 00:09:53;;;;;;;4.78;1.40;;;;;;;15.35;56.85;100876.19;6125667;28;20060;-67
2022/05/26 00:12:50;;;;;;;6.77;1.20;;;;;;;15.27;57.49;100863.69;6124124;28;20028;-67
2022/05/26 00:15:45;;;;;;;3.10;1.30;;;;;;;15.26;58.11;100870.03;6125790;28;20036;-67
2022/05/26 00:18:40;;;;;;;4.97;1.30;;;;;;;15.28;58.26;100873.38;6125489;28;20569;-67
2022/05/26 00:21:36;;;;;;;4.18;1.23;;;;;;;15.26;58.88;100882.56;6124061;28;20060;-67
2022/05/26 00:24:32;;;;;;;5.50;1.30;;;;;;;15.12;58.65;100859.22;6125273;28;20040;-67
2022/05/26 00:27:27;;;;;;;4.23;1.00;;;;;;;15.18;58.81;100872.75;6125284;28;20447;-67
2022/05/26 00:30:23;;;;;;;3.83;1.10;;;;;;;15.09;58.82;100868.41;6124610;28;20301;-67
2022/05/26 00:33:19;;;;;;;4.65;1.60;;;;;;;15.07;58.59;100873.09;6125191;28;20116;-67
2022/05/26 00:36:16;;;;;;;4.72;1.30;;;;;;;15.11;59.16;100868.25;6124748;28;20037;-67
2022/05/26 00:39:17;;;;;;;5.10;1.48;;;;;;;15.10;59.15;100872.75;6125367;28;20526;-67
2022/05/26 00:42:13;;;;;;;5.28;1.98;;;;;;;15.13;59.51;100883.13;6124626;28;20075;-67
2022/05/26 00:45:08;;;;;;;6.13;1.30;;;;;;;15.13;59.75;100875.09;6125504;28;20044;-67
2022/05/26 00:48:11;;;;;;;2.08;1.10;;;;;;;15.15;59.47;100881.09;6124862;28;20032;-67
2022/05/26 00:51:07;;;;;;;3.38;1.20;;;;;;;15.07;60.29;100872.25;6106125;28;20037;-68
2022/05/26 00:54:07;;;;;;;4.87;1.27;;;;;;;15.10;59.96;100878.09;6106855;28;20126;-67
2022/05/26 00:57:07;;;;;;;2.60;1.35;;;;;;;15.05;59.98;100872.44;6121528;28;20270;-67
2022/05/26 01:00:12;;;;;;;3.88;1.20;;;;;;;15.09;60.57;100881.78;6124094;28;20511;-68
2022/05/26 01:03:22;;;;;;;3.13;1.33;;;;;;;15.14;60.04;100889.25;6124388;28;20040;-67
2022/05/26 01:06:39;;;;;;;3.33;1.35;;;;;;;15.03;60.81;100897.66;6107005;28;20032;-67
2022/05/26 01:09:34;;;;;;;2.53;1.40;;;;;;;15.01;60.71;100884.47;6105704;28;20063;-67
2022/05/26 01:12:29;;;;;;;3.17;1.50;;;;;;;15.00;61.24;100877.44;6123470;28;20472;-67
2022/05/26 01:15:29;;;;;;;3.72;1.50;;;;;;;14.98;61.82;100879.47;6124679;28;20020;-67
2022/05/26 01:18:50;;;;;;;3.55;1.67;;;;;;;14.99;62.71;100891.81;6105755;28;20028;-67
2022/05/26 01:21:54;;;;;;;4.68;1.92;;;;;;;14.95;63.34;100874.47;6077963;28;20082;-67
2022/05/26 01:25:08;;;;;;;3.33;1.75;;;;;;;15.01;63.02;100884.47;6106397;28;20036;-67
2022/05/26 01:28:26;;;;;;;7.22;2.38;;;;;;;15.01;62.89;100884.47;6105770;28;20040;-66
2022/05/26 01:31:29;;;;;;;6.63;2.35;;;;;;;14.93;64.61;100892.50;6123260;28;20600;-67
2022/05/26 01:35:03;;;;;;;3.47;2.13;;;;;;;14.86;65.75;100891.53;6123358;28;20036;-67
2022/05/26 01:38:16;;;;;;;5.95;2.42;;;;;;;14.80;66.44;100893.03;6123709;28;20036;-67
2022/05/26 01:41:49;;;;;;;4.10;1.98;;;;;;;14.77;67.14;100897.84;6104960;28;20107;-67
2022/05/26 01:44:46;;;;;;;;;;;;;;;14.78;67.15;100896.88;6124262;28;20060;-67
2022/05/26 01:48:03;;;;;;;5.45;2.53;;;;;;;14.78;67.03;100904.88;6123280;28;19939;-67
2022/05/26 01:51:09;;;;;;;7.85;2.33;;;;;;;14.71;67.60;100893.19;6109405;28;20036;-67
2022/05/26 01:54:24;;;;;;;4.88;2.67;;;;;;;14.71;67.61;100893.19;6105663;28;20150;-67
2022/05/26 01:57:43;;;;;;;5.47;2.90;;;;;;;14.66;67.59;100895.53;6123289;28;20066;-67
2022/05/26 02:00:39;;;;;;;6.85;2.50;;;;;;;14.60;67.88;100896.19;6105069;28;20047;-67
2022/05/26 02:03:36;;;;;;;5.87;3.13;;;;;;;14.56;67.80;100894.88;6105031;28;20380;-67
2022/05/26 02:06:38;;;;;;;3.92;2.78;;;;;;;14.63;68.18;100906.53;6105382;28;20302;-67
2022/05/26 02:09:41;;;;;;;4.47;2.90;;;;;;;14.51;68.60;100898.03;6120809;28;20032;-67
2022/05/26 02:12:40;;;;;;;4.72;2.85;;;;;;;14.56;68.39;100908.22;6104802;28;20032;-68
2022/05/26 02:15:54;;;;;;;5.07;3.08;;;;;;;14.54;68.66;100896.88;6123381;28;20024;-66
2022/05/26 02:18:59;;;;;;;5.13;2.88;;;;;;;14.52;69.20;100910.38;6104578;28;20263;-67
2022/05/26 02:22:06;;;;;;;7.18;3.45;;;;;;;14.54;68.71;100903.03;6109927;28;20484;-67
2022/05/26 02:25:06;;;;;;;5.55;3.05;;;;;;;14.45;69.64;100908.56;6105305;28;20032;-67
2022/05/26 02:28:02;;;;;;;7.65;3.95;;;;;;;14.46;68.88;100894.22;6122362;28;20459;-68
2022/05/26 02:30:58;;;;;;;5.43;3.10;;;;;;;14.51;68.87;100898.03;6120962;28;20098;-67
2022/05/26 02:33:56;;;;;;;6.07;3.63;;;;;;;14.46;69.44;100892.34;6122243;28;20036;-67
2022/05/26 02:36:54;;;;;;;9.68;3.65;;;;;;;14.43;68.91;100899.88;6104300;28;20161;-67
2022/05/26 02:39:49;;;;;;;5.88;3.78;;;;;;;14.37;68.89;100880.03;6093032;28;20036;-68
2022/05/26 02:42:48;;;;;;;9.23;4.00;;;;;;;14.43;68.92;100894.56;6121440;28;20494;-67
2022/05/26 02:46:05;;;;;;;7.03;3.13;;;;;;;14.41;69.37;100896.53;6103761;28;20044;-67
2022/05/26 02:49:24;;;;;;;4.75;3.58;;;;;;;14.41;68.71;100885.84;6104513;28;20055;-67
2022/05/26 02:52:44;;;;;;;6.07;3.95;;;;;;;14.42;69.25;100888.38;6121068;28;20035;-67
2022/05/26 02:55:51;;;;;;;6.20;3.95;;;;;;;14.45;69.10;100888.03;6121601;28;20093;-67
2022/05/26 02:59:06;;;;;;;6.28;4.05;;;;;;;14.47;69.27;100891.38;6101382;28;20039;-67
2022/05/26 03:02:16;;;;;;;8.75;4.03;;;;;;;14.55;70.13;100882.53;6103005;28;20040;-68
2022/05/26 03:05:36;;;;;;;13.35;4.28;;;;;;;14.51;70.09;100897.22;6122228;28;20051;-67
2022/05/26 03:08:36;;;;;;;6.50;3.88;;;;;;;14.44;69.85;100888.19;6096068;28;20113;-67
2022/05/26 03:11:42;;;;;;;8.63;3.95;;;;;;;14.46;69.31;100888.88;6103332;28;20078;-67
2022/05/26 03:14:38;;;;;;;9.77;3.85;;;;;;;14.47;69.50;100895.88;6121766;28;20039;-67
2022/05/26 03:17:33;;;;;;;9.47;4.60;;;;;;;14.46;69.33;100904.91;6121578;28;20446;-67
2022/05/26 03:20:29;;;;;;;6.40;3.60;;;;;;;14.50;69.85;100890.19;6121085;28;20158;-67
2022/05/26 03:23:24;;;;;;;8.53;3.83;;;;;;;14.52;70.20;100904.19;6121795;28;20036;-67
2022/05/26 03:26:19;;;;;;;7.90;3.65;;;;;;;14.45;70.45;100887.19;6121303;28;20036;-67
2022/05/26 03:29:15;;;;;;;6.83;3.90;;;;;;;14.52;69.66;100896.19;6121190;28;20036;-68
2022/05/26 03:32:10;;;;;;;7.57;3.63;;;;;;;14.49;70.02;100904.53;6121096;28;20036;-67
2022/05/26 03:41:34;;;;;;;4.80;3.38;;;;;;;14.49;70.70;100893.84;6120775;28;20471;-67
2022/05/26 03:44:31;;;;;;;7.72;3.85;;;;;;;14.54;70.77;100896.88;6103730;28;20037;-67
2022/05/26 03:47:26;;;;;;;6.88;3.90;;;;;;;14.39;70.70;100866.50;6120591;28;20036;-67
2022/05/26 03:50:21;;;;;;;8.23;4.40;;;;;;;14.50;71.06;100879.53;6120368;28;20039;-67
2022/05/26 03:53:17;;;;;;;11.20;4.50;;;;;;;14.52;71.12;100881.03;6120672;28;20064;-67
2022/05/26 03:56:12;;;;;;;10.57;4.83;;;;;;;14.57;70.51;100886.69;6121292;28;20119;-67
2022/05/26 03:59:07;;;;;;;9.13;4.63;;;;;;;14.61;70.57;100898.72;6121668;28;20271;-67
2022/05/26 04:02:03;;;;;;;7.13;4.17;;;;;;;14.62;70.73;100903.03;6120729;28;20039;-67
2022/05/26 04:04:59;;;;;;;7.00;3.90;;;;;;;14.65;70.24;100900.03;6120369;28;20024;-67
2022/05/26 04:07:55;;;;;;;8.57;4.00;;;;;;;14.67;70.56;100902.53;6120725;28;20032;-68
2022/05/26 04:10:50;;;;;;;7.60;3.83;;;;;;;14.70;70.75;100907.56;6120216;28;20036;-67
2022/05/26 04:13:46;;;;;;;6.63;3.83;;;;;;;14.70;70.26;100908.38;6103377;28;20021;-67
2022/05/26 04:16:42;;;;;;;7.20;3.60;;;;;;;14.68;70.48;100906.88;6121104;28;20044;-67
2022/05/26 04:19:41;;;;;;;8.75;3.72;;;;;;;14.75;70.10;100926.56;6121189;28;20112;-67
2022/05/26 04:22:36;;;;;;;7.57;3.90;;;;;;;14.76;70.37;100928.22;6119230;28;20454;-67
2022/05/26 04:25:32;;;;;;;7.00;4.37;;;;;;;14.62;71.78;100921.72;6120361;28;20035;-68
2022/05/26 04:28:27;;;;;;;8.48;4.50;;;;;;;14.28;76.13;100929.00;6120398;28;20024;-67
2022/05/26 04:31:22;;;;;;;7.57;4.60;;;;;;;13.77;79.28;100945.22;6119939;28;20036;-67
2022/05/26 04:34:18;;;;;;;11.07;5.27;;;;;;;13.46;82.63;100931.56;6120985;28;20033;-67
2022/05/26 04:37:20;;;;;;;9.25;5.60;;;;;;;13.24;83.70;100926.78;6120714;28;20399;-67
2022/05/26 04:40:16;;;;;;;10.38;5.88;;;;;;;13.16;84.77;100942.72;6119487;28;20029;-67
2022/05/26 04:43:12;;;;;;;8.88;5.05;;;;;;;13.13;85.86;100945.72;6120342;28;20126;-67
2022/05/26 04:46:07;;;;;;;14.35;6.35;;;;;;;13.05;87.07;100955.28;6120099;28;20028;-66
2022/05/26 04:49:03;;;;;;;11.10;6.20;;;;;;;13.01;87.18;100953.94;6120675;28;20043;-67
2022/05/26 04:51:58;;;;;;;11.20;6.47;;;;;;;13.03;87.35;100972.41;6119695;28;20056;-67
2022/05/26 04:54:54;;;;;;;9.87;6.10;;;;;;;12.99;88.03;100977.19;6131979;28;20090;-66
2022/05/26 04:57:49;;;;;;;11.45;7.15;;;;;;;13.05;87.76;100976.56;6135208;28;20078;-66
2022/05/26 05:00:45;;;;;;;12.18;7.60;;;;;;;13.06;87.72;100980.91;6123133;28;20051;-66
2022/05/26 05:03:41;;;;;;;12.40;7.53;;;;;;;13.05;88.31;100981.91;6124686;28;20526;-66
2022/05/26 05:06:37;;;;;;;12.75;7.82;;;;;;;13.13;88.65;100977.69;6124407;28;20063;-65
2022/05/26 05:09:32;;;;;;;13.57;7.70;;;;;;;13.08;88.51;100983.44;6123226;28;20617;-66
2022/05/26 05:12:28;;;;;;;12.50;7.93;;;;;;;13.10;89.01;100981.44;6122785;28;20032;-66
2022/05/26 05:15:30;;;;;;;12.38;7.47;;;;;;;13.11;89.30;100991.97;6123793;28;20494;-66
2022/05/26 05:18:25;;;;;;;12.13;7.68;;;;;;;13.14;89.50;100993.47;6106473;28;20518;-66
2022/05/26 05:21:24;;;;;;;10.77;6.93;;;;;;;13.18;88.90;101002.00;6122731;28;20029;-67
2022/05/26 05:24:20;;;;;;;11.18;6.93;;;;;;;13.22;88.79;101008.69;6124523;28;20355;-66
2022/05/26 05:27:16;;;;;;;10.45;6.13;;;;;;;13.23;88.61;101011.19;6106150;28;20103;-66
2022/05/26 05:30:18;;;;;;;10.17;6.20;;;;;;;13.26;87.83;100999.41;6123414;28;20058;-66
2022/05/26 05:33:17;;;;;;;7.95;5.55;;;;;;;13.49;87.37;101012.03;6124158;28;20033;-66
2022/05/26 05:36:24;;;;;;;8.43;5.57;;;;;;;13.85;87.65;101010.06;6124070;28;20044;-66
2022/05/26 05:39:19;;;;;;;9.07;4.32;;;;;;;13.97;85.30;101002.63;6106309;28;20029;-66
2022/05/26 05:42:14;;;;;;;8.70;4.40;;;;;;;14.06;84.88;101009.63;6123236;28;20028;-66
2022/05/26 05:45:10;;;;;;;7.43;4.40;;;;;;;14.35;84.14;101009.28;6105698;28;20028;-67
2022/05/26 05:48:07;;;;;;;5.95;4.07;;;;;;;14.39;83.21;101021.28;6123755;28;20043;-66
2022/05/26 05:51:02;;;;;;;8.30;4.60;;;;;;;14.59;82.35;101020.00;6122656;28;20036;-67
2022/05/26 05:53:58;;;;;;;7.20;4.03;;;;;;;14.61;82.35;101016.16;6123821;28;20428;-66
2022/05/26 05:56:53;;;;;;;16.08;4.45;;;;;;;14.78;81.57;101028.50;6122527;28;20025;-67
2022/05/26 05:59:48;;;;;;;6.10;3.70;;;;;;;14.82;81.11;101023.69;6122392;28;20111;-67
2022/05/26 06:02:43;;;;;;;9.07;4.20;;;;;;;14.88;80.48;101039.88;6122271;28;20533;-67
2022/05/26 06:05:39;;;;;;;6.80;4.17;;;;;;;15.01;79.56;101036.72;6122695;28;20028;-67
2022/05/26 06:08:35;;;;;;;7.80;4.63;;;;;;;14.93;80.55;101031.38;6123332;28;20622;-67
2022/05/26 06:11:31;;;;;;;5.20;3.92;;;;;;;15.30;79.64;101031.69;6122277;28;20089;-67
2022/05/26 06:14:26;;;;;;;8.48;4.35;;;;;;;15.48;77.47;101037.72;6122666;28;20064;-66
2022/05/26 06:17:22;;;;;;;6.00;4.60;;;;;;;15.45;78.31;101035.34;6122801;28;20066;-66
2022/05/26 06:20:17;;;;;;;7.68;4.70;;;;;;;15.57;77.55;101037.69;6062280;28;20490;-67
2022/05/26 06:23:12;;;;;;;9.52;4.78;;;;;;;15.62;77.53;101036.19;6051412;28;20034;-66
2022/05/26 06:26:08;;;;;;;6.30;5.07;;;;;;;15.63;78.59;101028.97;6055385;28;20034;-66
2022/05/26 06:38:46;;;;;;;7.15;4.63;;;;;;;15.97;75.00;101027.72;6055461;28;20409;-67
2022/05/26 06:44:55;;;;;;;7.32;3.90;;;;;;;17.26;71.54;101042.13;6050296;28;20026;-67
2022/05/26 06:47:51;;;;;;;10.27;3.50;;;;;;;17.57;67.95;101042.06;6050640;28;20037;-66
2022/05/26 06:50:46;;;;;;;7.57;3.85;;;;;;;17.36;68.54;101047.25;6049676;28;20037;-67
2022/05/26 06:53:42;;;;;;;6.70;3.40;;;;;;;17.41;68.59;101039.50;6051900;28;20444;-66
2022/05/26 06:56:38;;;;;;;7.63;3.20;;;;;;;17.58;69.86;101041.84;6050235;28;20061;-67
2022/05/26 06:59:33;;;;;;;6.85;3.17;;;;;;;17.63;67.19;101044.84;6059218;28;20091;-67
2022/05/26 07:02:31;;;;;;;8.45;3.88;;;;;;;17.54;67.38;101042.41;6051360;28;20079;-67
2022/05/26 07:05:27;;;;;;;4.40;3.05;;;;;;;17.26;67.82;101058.22;6050687;28;20088;-67
2022/05/26 07:08:22;;;;;;;7.03;3.03;;;;;;;16.84;70.34;101074.81;6050032;28;20125;-67
2022/05/26 07:11:18;;;;;;;9.83;4.20;;;;;;;16.74;71.38;101068.03;6049304;28;20700;-66
2022/05/26 07:14:13;;;;;;;6.85;3.13;;;;;;;17.41;68.64;101064.47;6060503;28;20310;-67
2022/05/26 07:17:08;;;;;;;8.32;3.70;;;;;;;17.61;67.56;101062.94;6049727;28;20083;-66
2022/05/26 07:20:04;;;;;;;6.27;3.20;;;;;;;17.98;65.26;101067.44;6049097;28;20045;-67
2022/05/26 07:23:00;;;;;;;7.75;3.17;;;;;;;17.51;66.67;101078.44;6049945;28;20042;-67
2022/05/26 07:25:55;;;;;;;9.83;4.77;;;;;;;17.39;65.99;101079.91;6049944;28;20034;-67
2022/05/26 07:28:53;;;;;;;5.80;3.03;;;;;;;17.36;68.93;101080.28;6062609;28;20385;-68
2022/05/26 07:31:49;;;;;;;5.95;3.40;;;;;;;17.52;66.27;101080.13;6049153;28;20291;-67
2022/05/26 07:34:44;;;;;;;8.73;3.67;;;;;;;17.27;67.46;101082.19;6049694;28;20485;-67
2022/05/26 07:41:16;;;;;;;7.95;3.10;;;;;;;16.73;68.30;101101.16;6048863;28;20635;-67
2022/05/26 07:44:12;;;;;;;5.18;3.33;;;;;;;16.72;68.87;101104.84;6051787;28;20034;-66
2022/05/26 07:47:08;;;;;;;5.93;3.05;;;;;;;16.81;69.39;101101.09;6049227;28;20037;-67
2022/05/26 07:50:06;;;;;;;6.63;2.72;;;;;;;16.98;67.23;101102.69;6048886;28;20030;-67
2022/05/26 07:53:02;;;;;;;8.15;2.90;;;;;;;16.89;68.62;101093.03;6049356;28;20046;-67
2022/05/26 07:55:57;;;;;;;8.27;3.10;;;;;;;16.81;69.69;101106.47;6049504;28;20064;-67
2022/05/26 07:58:52;;;;;;;8.20;3.13;;;;;;;16.54;70.51;101113.97;6049505;28;20732;-67
2022/05/26 08:01:48;;;;;;;9.80;4.30;;;;;;;16.49;69.00;101112.81;6051720;28;20036;-66
2022/05/26 08:04:44;;;;;;;9.27;3.33;;;;;;;16.51;69.90;101108.94;6053479;28;20037;-66
2022/05/26 08:07:41;;;;;;;7.07;3.42;;;;;;;17.32;67.84;101121.84;6049977;28;20030;-67
2022/05/26 08:10:38;;;;;;;8.90;3.70;;;;;;;18.02;64.24;101113.53;6048154;28;20413;-67
2022/05/26 08:13:33;;;;;;;7.57;2.65;;;;;;;18.06;63.30;101109.44;6049213;28;20032;-67
2022/05/26 08:16:29;;;;;;;11.37;2.93;;;;;;;17.92;62.37;101124.53;6049069;28;20758;-67
2022/05/26 08:19:24;;;;;;;7.53;2.70;;;;;;;17.71;62.63;101111.81;6049240;28;20476;-68
2022/05/26 08:22:19;;;;;;;6.87;2.77;;;;;;;17.46;63.29;101128.28;6048440;28;20276;-67
2022/05/26 08:25:15;;;;;;;8.52;2.90;;;;;;;16.96;64.75;101124.28;6058242;28;20045;-67
2022/05/26 08:28:10;;;;;;;5.93;2.80;;;;;;;16.88;66.46;101129.69;6052423;28;20038;-67
2022/05/26 08:31:08;;;;;;;6.07;2.80;;;;;;;16.54;68.24;101130.06;6053299;28;20034;-67
2022/05/26 08:34:04;;;;;;;6.85;3.15;;;;;;;16.23;68.41;101142.50;6053241;28;20092;-67
2022/05/26 08:36:59;;;;;;;6.15;3.00;;;;;;;16.07;67.49;101127.34;6053556;28;20056;-67
2022/05/26 08:39:55;;;;;;;5.53;2.60;;;;;;;16.07;68.05;101145.22;6054679;28;20033;-67
2022/05/26 08:42:50;;;;;;;6.47;2.37;;;;;;;16.22;68.31;101148.88;6053650;28;20782;-67
2022/05/26 08:45:48;;;;;;;4.83;2.30;;;;;;;16.35;67.72;101149.16;6058676;28;20041;-67
2022/05/26 08:49:08;;;;;;;4.28;2.22;;;;;;;16.93;66.09;101162.13;6062568;28;20030;-67
2022/05/26 08:52:13;;;;;;;10.45;2.60;;;;;;;17.05;64.23;101173.31;6047352;28;20034;-67
2022/05/26 08:55:35;;;;;;;5.18;2.67;;;;;;;17.60;62.89;101157.88;6060099;28;20481;-67
2022/05/26 08:58:50;;;;;;;7.07;2.80;;;;;;;18.18;63.50;101159.78;6050954;28;20065;-67
2022/05/26 09:01:45;;;;;;;5.60;3.05;;;;;;;18.74;62.14;101155.63;6050796;28;20034;-67
2022/05/26 09:04:41;;;;;;;9.35;3.20;;;;;;;19.05;60.55;101158.06;6054427;28;20404;-67
2022/05/26 09:14:31;;;;;;;9.25;3.45;;;;;;;19.34;60.11;101152.59;6058965;28;20037;-67
2022/05/26 09:17:28;;;;;;;5.18;3.10;;;;;;;19.06;59.95;101153.50;6051189;28;20377;-67
2022/05/26 09:20:34;;;;;;;8.95;3.08;;;;;;;19.02;59.21;101155.78;6053496;28;20696;-68
2022/05/26 09:23:29;;;;;;;6.40;2.85;;;;;;;19.12;59.49;101166.19;6052871;28;20083;-67
2022/05/26 09:26:25;;;;;;;8.25;2.88;;;;;;;19.20;56.94;101158.00;6052475;28;20037;-66
2022/05/26 09:29:27;;;;;;;9.75;2.60;;;;;;;19.17;57.44;101169.97;6048562;28;20045;-68
2022/05/26 09:32:30;;;;;;;7.78;2.42;;;;;;;19.11;55.58;101169.91;6049289;28;20401;-68
2022/05/26 09:35:28;;;;;;;4.88;2.38;;;;;;;19.75;53.52;101171.63;6057666;28;20384;-67
2022/05/26 09:38:31;;;;;;;5.13;2.00;;;;;;;19.61;53.25;101177.91;6064327;28;20117;-67
2022/05/26 09:41:26;;;;;;;6.85;2.10;;;;;;;19.10;52.54;101179.00;6059172;28;20060;-67
2022/05/26 09:44:35;;;;;;;4.10;1.80;;;;;;;18.68;54.11;101188.63;6050888;28;20521;-67
2022/05/26 09:47:37;;;;;;;5.45;1.80;;;;;;;18.56;55.25;101197.34;6049798;28;20041;-67
2022/05/26 09:50:32;;;;;;;9.40;2.00;;;;;;;19.03;52.28;101195.88;6066085;28;20397;-67
2022/05/26 09:53:34;;;;;;;6.67;1.87;;;;;;;18.94;51.52;101201.56;6051718;28;20037;-67
2022/05/26 09:56:40;;;;;;;5.05;1.77;;;;;;;18.59;52.80;101197.00;6051281;28;20030;-67
2022/05/26 09:59:38;;;;;;;6.18;1.90;;;;;;;18.66;53.32;101204.09;6051295;28;20034;-67
2022/05/26 10:02:40;;;;;;;5.60;1.58;;;;;;;19.19;52.20;101207.41;6050544;28;20038;-68
2022/05/26 10:05:50;;;;;;;3.53;1.67;;;;;;;19.36;52.01;101206.19;6067073;28;20389;-67
2022/05/26 10:08:59;;;;;;;4.32;1.88;;;;;;;18.97;51.33;101204.69;6051060;28;20036;-67
2022/05/26 10:12:08;;;;;;;4.20;1.92;;;;;;;19.26;52.68;101209.19;6049166;28;20046;-67
2022/05/26 10:15:35;;;;;;;4.93;1.50;;;;;;;19.70;52.18;101208.22;6051197;28;20065;-67
2022/05/26 10:18:48;;;;;;;6.07;1.90;;;;;;;20.03;50.79;101207.44;6050548;28;20048;-67
2022/05/26 10:21:52;;;;;;;6.72;1.55;;;;;;;19.75;49.96;101217.38;6049125;28;20168;-67
2022/05/26 10:25:07;;;;;;;3.83;1.50;;;;;;;19.60;50.39;101236.25;6049969;28;20034;-67
2022/05/26 10:28:20;;;;;;;8.02;1.75;;;;;;;19.47;49.82;101224.53;6050848;28;20038;-67
2022/05/26 10:31:39;;;;;;;5.40;1.42;;;;;;;20.35;49.50;101230.31;6050343;28;20041;-68
2022/05/26 10:34:47;;;;;;;;;;;;;;;20.58;48.31;101235.41;6058803;28;20037;-67
2022/05/26 10:37:51;;;;;;;4.95;1.67;;;;;;;20.64;48.59;101229.25;6065974;28;20377;-67
2022/05/26 10:40:49;;;;;;;7.90;1.60;;;;;;;20.47;49.64;101233.28;6050194;28;20026;-68
2022/05/26 10:43:49;;;;;;;5.75;1.70;;;;;;;20.27;50.14;101221.53;6065865;28;20148;-68
2022/05/26 10:46:56;;;;;;;6.28;1.73;;;;;;;19.61;50.16;101231.72;6050408;28;20038;-67
2022/05/26 10:50:16;;;;;;;7.40;1.80;;;;;;;19.24;51.10;101234.59;6050827;28;20094;-67
2022/05/26 10:53:18;;;;;;;5.90;1.52;;;;;;;19.20;52.13;101228.75;6050079;28;20375;-67
2022/05/26 10:56:26;;;;;;;3.30;1.40;;;;;;;19.73;50.81;101224.78;6050546;28;20045;-68
2022/05/26 10:59:39;;;;;;;4.07;1.35;;;;;;;19.69;48.41;101239.66;6065535;28;20040;-67
2022/05/26 11:02:54;;;;;;;4.55;1.50;;;;;;;19.08;50.47;101234.84;6064936;28;20033;-67
2022/05/26 11:05:54;;;;;;;7.50;2.17;;;;;;;18.69;52.54;101225.25;6049039;28;20440;-67
2022/05/26 11:08:54;;;;;;;4.35;1.50;;;;;;;18.41;53.13;101238.44;6059128;28;20374;-67
2022/05/26 11:11:53;;;;;;;4.30;1.88;;;;;;;18.22;54.28;101224.72;6047973;28;20503;-67
2022/05/26 11:18:29;;;;;;;6.50;1.75;;;;;;;19.49;52.66;101239.47;6062870;28;20030;-68
2022/05/26 11:21:25;;;;;;;9.00;1.80;;;;;;;20.04;49.47;101229.81;6039198;28;20042;-67
2022/05/26 11:24:23;;;;;;;3.10;1.30;;;;;;;20.26;48.76;101236.03;6049924;28;20485;-68
2022/05/26 11:27:33;;;;;;;6.07;1.52;;;;;;;20.57;47.28;101229.19;6049952;28;20060;-67
2022/05/26 11:37:35;;;;;;;4.93;1.60;;;;;;;19.38;51.31;101233.75;6048846;28;20033;-67
2022/05/26 11:40:35;;;;;;;5.45;1.52;;;;;;;19.67;47.91;101232.81;6064854;28;20029;-67
2022/05/26 11:43:36;;;;;;;3.80;1.25;;;;;;;20.09;47.45;101235.44;6049727;28;20537;-67
2022/05/26 11:46:53;;;;;;;3.85;1.30;;;;;;;19.91;48.04;101229.72;6049340;28;20034;-68
2022/05/26 11:49:48;;;;;;;3.45;1.10;;;;;;;20.10;47.90;101227.19;6064455;28;20508;-67
2022/05/26 11:52:46;;;;;;;5.07;1.60;;;;;;;20.56;48.99;101237.47;6048843;28;20026;-67
2022/05/26 11:56:04;;;;;;;3.38;1.27;;;;;;;20.58;49.25;101225.47;6049332;28;20038;-67
2022/05/26 11:59:32;;;;;;;6.55;1.73;;;;;;;20.63;47.21;101228.41;6060023;28;20038;-67
2022/05/26 12:02:30;;;;;;;7.72;2.17;;;;;;;20.56;47.03;101222.16;6051780;28;20030;-67
2022/05/26 12:05:28;;;;;;;5.18;1.33;;;;;;;20.05;47.82;101239.59;6053976;28;20030;-67
2022/05/26 12:08:27;;;;;;;4.15;1.27;;;;;;;19.46;49.68;101233.63;6054081;28;20389;-68
2022/05/26 12:12:00;;;;;;;4.97;1.40;;;;;;;20.06;49.71;101236.69;6052098;28;20042;-67
2022/05/26 12:14:56;;;;;;;6.53;1.50;;;;;;;21.20;47.85;101232.63;6052163;28;20061;-67
2022/05/26 12:17:53;;;;;;;4.85;1.58;;;;;;;21.45;46.56;101225.63;6053794;28;20025;-67
2022/05/26 12:20:48;;;;;;;5.57;1.83;;;;;;;21.82;45.57;101208.84;6053157;28;20030;-67
2022/05/26 12:23:44;;;;;;;4.68;1.88;;;;;;;21.60;45.35;101209.28;6053722;28;20037;-67
2022/05/26 12:26:54;;;;;;;5.27;1.60;;;;;;;21.35;46.24;101209.84;6053574;28;20168;-67
2022/05/26 12:29:55;;;;;;;5.10;1.65;;;;;;;21.18;46.78;101213.94;6053451;28;20295;-67
2022/05/26 12:32:52;;;;;;;6.40;1.90;;;;;;;21.08;46.55;101209.97;6052258;28;20041;-68
2022/05/26 12:36:06;;;;;;;3.83;1.20;;;;;;;21.16;46.96;101217.88;6052068;28;20038;-68
2022/05/26 12:39:39;;;;;;;4.68;1.50;;;;;;;21.19;44.87;101201.31;6053283;28;20137;-67
2022/05/26 12:42:56;;;;;;;5.85;1.60;;;;;;;20.79;45.64;101211.06;6052661;28;20054;-67
2022/05/26 12:45:53;;;;;;;4.38;1.42;;;;;;;21.22;45.50;101211.69;6068780;28;20034;-67
2022/05/26 12:48:57;;;;;;;9.02;1.60;;;;;;;21.06;44.71;101212.81;6062195;28;20030;-67
2022/05/26 12:52:11;;;;;;;5.75;1.50;;;;;;;20.66;45.44;101206.44;6067470;28;20037;-67
2022/05/26 12:55:17;;;;;;;5.00;1.58;;;;;;;20.10;47.63;101216.44;6068306;28;20099;-67
2022/05/26 12:58:21;;;;;;;5.80;1.40;;;;;;;20.06;48.91;101207.06;6052924;28;20041;-67
2022/05/26 13:01:19;;;;;;;3.72;1.58;;;;;;;20.16;48.09;101214.81;6052476;28;20440;-67
2022/05/26 13:04:24;;;;;;;6.57;1.40;;;;;;;20.55;48.79;101201.59;6068469;28;20123;-67
2022/05/26 13:07:19;;;;;;;4.30;1.50;;;;;;;20.85;46.29;101204.88;6068397;28;20037;-67
2022/05/26 13:10:14;;;;;;;5.00;1.43;;;;;;;20.22;47.63;101208.63;6052107;28;20049;-68
2022/05/26 13:13:38;;;;;;;5.78;1.40;;;;;;;19.84;48.23;101210.81;6051763;28;20058;-67
2022/05/26 13:16:42;;;;;;;4.50;1.38;;;;;;;19.53;47.77;101205.78;6052656;28;20052;-67
2022/05/26 13:19:48;;;;;;;5.40;1.80;;;;;;;19.22;48.78;101201.66;6052718;28;20351;-67
2022/05/26 13:22:44;;;;;;;4.22;1.30;;;;;;;19.26;50.00;101200.28;6053353;28;20022;-67
2022/05/26 13:25:39;;;;;;;4.97;1.50;;;;;;;19.29;50.15;101203.44;6052389;28;20180;-67
2022/05/26 13:28:37;;;;;;;4.67;1.60;;;;;;;19.37;51.10;101215.91;6067597;28;20385;-67
2022/05/26 13:34:49;;;;;;;3.92;1.67;;;;;;;19.30;52.65;101206.94;6052122;28;20429;-67
2022/05/26 13:37:45;;;;;;;4.97;1.80;;;;;;;19.12;51.97;101195.78;6055583;28;20071;-67
2022/05/26 13:40:40;;;;;;;6.03;1.92;;;;;;;18.97;53.02;101193.09;6056364;28;20061;-67
2022/05/26 13:43:38;;;;;;;6.03;1.92;;;;;;;18.78;53.42;101199.91;6050694;28;20026;-67
2022/05/26 13:46:48;;;;;;;5.60;1.85;;;;;;;18.70;52.97;101178.53;6050516;28;20053;-67
2022/05/26 13:49:56;;;;;;;4.45;1.80;;;;;;;18.84;53.75;101174.97;6051624;28;20097;-67
2022/05/26 13:52:51;;;;;;;9.63;2.38;;;;;;;19.39;51.89;101185.16;6051244;28;20038;-67
2022/05/26 13:55:48;;;;;;;4.97;1.63;;;;;;;19.82;51.98;101179.72;6057603;28;20544;-67
2022/05/26 13:58:44;;;;;;;7.43;2.03;;;;;;;20.11;51.01;101180.38;6050135;28;20037;-67
2022/05/26 14:01:53;;;;;;;6.00;1.52;;;;;;;20.12;51.54;101182.03;6049342;28;20145;-68
2022/05/26 14:05:13;;;;;;;5.72;1.58;;;;;;;19.70;51.61;101187.53;6051242;28;20033;-67
2022/05/26 14:08:10;;;;;;;4.07;2.03;;;;;;;19.34;52.11;101178.66;6051353;28;20026;-67
2022/05/26 14:11:05;;;;;;;5.63;1.42;;;;;;;19.57;52.47;101171.22;6049327;28;20029;-67
2022/05/26 14:14:24;;;;;;;5.27;1.90;;;;;;;20.82;49.57;101172.91;6051327;28;20446;-67
2022/05/26 14:17:36;;;;;;;;;;;;;;;20.60;48.83;101171.38;6051409;28;20622;-67
2022/05/26 14:20:32;;;;;;;5.10;1.50;;;;;;;20.01;50.75;101171.81;6050538;28;19997;-67
2022/05/26 14:23:32;;;;;;;7.73;2.93;;;;;;;19.67;51.74;101160.16;6050967;28;20034;-67
2022/05/26 14:26:35;;;;;;;4.28;1.98;;;;;;;19.28;52.33;101168.63;6051190;28;20438;-68
2022/05/26 14:29:33;;;;;;;3.35;1.45;;;;;;;19.05;54.71;101168.84;6051681;28;20489;-67
2022/05/26 14:32:35;;;;;;;5.25;1.50;;;;;;;18.78;53.04;101158.78;6050398;28;20026;-67
2022/05/26 14:35:31;;;;;;;7.03;1.60;;;;;;;18.70;54.29;101167.78;6065972;28;20113;-68
2022/05/26 14:38:26;;;;;;;6.73;2.63;;;;;;;18.56;54.44;101160.59;6050936;28;20500;-67
2022/05/26 14:41:22;;;;;;;4.63;2.00;;;;;;;18.76;54.71;101158.97;6050337;28;20026;-68
2022/05/26 14:44:17;;;;;;;5.95;2.03;;;;;;;18.90;54.55;101176.09;6050862;28;20056;-68